Time;durP1;ratioP1;P1;durP2;ratioP2;P2;SDS_P1;SDS_P2;PMS_P1;PMS_P2;Temp;Humidity;BMP_temperature;BMP_pressure;BME280_temperature;BME280_humidity;BME280_pressure;Samples;Min_cycle;Max_cycle;Signal;HPM_P1;HPM_P2
2022/05/03 00:00:25;;;;;;;6.20;5.60;;;;;;;8.82;100.00;99230.13;5012868;28;20226;-78
2022/05/03 00:03:19;;;;;;;6.10;5.60;;;;;;;8.76;100.00;99219.50;5028111;28;20283;-79
2022/05/03 00:06:42;;;;;;;6.70;6.07;;;;;;;8.68;100.00;99219.75;5016442;28;20460;-78
2022/05/03 00:09:12;;;;;;;6.63;6.03;;;;;;;8.65;100.00;99221.03;4917672;29;20671;-79
2022/05/03 00:11:53;;;;;;;6.90;6.40;;;;;;;8.65;100.00;99220.22;4917892;29;20186;-79
2022/05/03 00:14:26;;;;;;;5.97;5.37;;;;;;;8.62;100.00;99221.47;4978269;28;20198;-79
2022/05/03 00:16:53;;;;;;;6.17;5.57;;;;;;;8.57;100.00;99215.13;5015966;28;20189;-78
2022/05/03 00:19:20;;;;;;;6.20;5.70;;;;;;;8.49;100.00;99220.75;4999876;28;20213;-78
2022/05/03 00:21:46;;;;;;;6.40;5.80;;;;;;;8.46;100.00;99213.97;5016207;28;20214;-79
2022/05/03 00:24:13;;;;;;;6.57;5.97;;;;;;;8.47;100.00;99212.13;5033477;28;20182;-77
2022/05/03 00:26:40;;;;;;;6.63;6.03;;;;;;;8.45;100.00;99206.16;4983920;28;20244;-78
2022/05/03 00:29:07;;;;;;;5.97;5.47;;;;;;;8.45;100.00;99203.50;4999374;28;20248;-79
2022/05/03 00:31:34;;;;;;;6.30;5.70;;;;;;;8.45;100.00;99207.00;5015553;28;20178;-79
2022/05/03 00:34:01;;;;;;;6.13;5.53;;;;;;;8.44;100.00;99201.88;5015835;28;20186;-79
2022/05/03 00:36:28;;;;;;;6.30;5.73;;;;;;;8.40;100.00;99202.31;5015476;28;20240;-78
2022/05/03 00:38:55;;;;;;;5.53;5.03;;;;;;;8.36;100.00;99206.44;4999635;28;20225;-78
2022/05/03 00:41:46;;;;;;;6.27;5.30;;;;;;;8.32;100.00;99212.44;5032065;28;20506;-77
2022/05/03 00:47:15;;;;;;;6.00;5.40;;;;;;;8.21;100.00;99213.88;5032966;28;20183;-78
2022/05/03 00:49:48;;;;;;;5.47;4.97;;;;;;;8.20;100.00;99209.59;5015359;28;20174;-78
2022/05/03 00:52:24;;;;;;;6.07;5.57;;;;;;;8.13;100.00;99208.81;5032734;28;20174;-78
2022/05/03 00:55:10;;;;;;;6.30;5.70;;;;;;;8.06;100.00;99199.22;5016641;28;20543;-79
2022/05/03 00:58:12;;;;;;;6.07;5.57;;;;;;;7.98;100.00;99205.59;5033857;28;20175;-78
2022/05/03 01:01:05;;;;;;;6.53;5.53;;;;;;;7.93;100.00;99211.56;5016797;28;20190;-78
2022/05/03 01:03:55;;;;;;;6.33;5.47;;;;;;;7.91;100.00;99210.16;4999375;28;20547;-79
2022/05/03 01:06:45;;;;;;;5.60;5.10;;;;;;;7.85;100.00;99206.50;5033173;28;20209;-79
2022/05/03 01:09:12;;;;;;;6.37;5.47;;;;;;;7.82;100.00;99204.25;5015550;28;20171;-78
2022/05/03 01:11:54;;;;;;;5.97;5.47;;;;;;;7.84;100.00;99207.50;4999333;28;20282;-78
2022/05/03 01:14:39;;;;;;;6.40;5.70;;;;;;;7.85;100.00;99208.34;5015633;28;20193;-80
2022/05/03 01:17:14;;;;;;;6.20;5.60;;;;;;;7.80;100.00;99206.31;5033073;28;20577;-79
2022/05/03 01:19:47;;;;;;;6.30;5.70;;;;;;;7.72;100.00;99209.22;5015892;28;20178;-79
2022/05/03 01:22:47;;;;;;;5.83;5.33;;;;;;;7.68;100.00;99220.50;5015420;28;20178;-79
2022/05/03 01:25:17;;;;;;;6.63;6.03;;;;;;;7.65;100.00;99224.41;5015724;28;20213;-79
2022/05/03 01:27:50;;;;;;;6.10;5.37;;;;;;;7.66;100.00;99217.22;5033325;28;20229;-79
2022/05/03 01:30:17;;;;;;;6.00;5.50;;;;;;;7.63;100.00;99218.47;5032683;28;20598;-78
2022/05/03 01:32:45;;;;;;;6.03;5.43;;;;;;;7.64;100.00;99217.47;4998871;28;20744;-78
2022/05/03 01:35:13;;;;;;;5.83;5.33;;;;;;;7.62;100.00;99211.50;4998603;28;20281;-78
2022/05/03 01:38:02;;;;;;;5.80;5.23;;;;;;;7.59;100.00;99213.78;5015380;28;20186;-78
2022/05/03 01:40:58;;;;;;;5.70;5.20;;;;;;;7.58;100.00;99212.97;5015172;28;20702;-79
2022/05/03 01:43:27;;;;;;;6.97;5.87;;;;;;;7.55;100.00;99209.91;5033075;28;20190;-78
2022/05/03 01:46:10;;;;;;;6.23;5.50;;;;;;;7.53;100.00;99210.09;4999484;28;20186;-78
2022/05/03 01:51:55;;;;;;;6.00;5.50;;;;;;;7.51;100.00;99212.97;5032859;28;20186;-78
2022/05/03 01:54:56;;;;;;;5.90;5.40;;;;;;;7.49;100.00;99204.38;5017496;28;20186;-78
2022/05/03 01:57:47;;;;;;;6.63;5.20;;;;;;;7.49;100.00;99206.22;5035063;28;20229;-78
2022/05/03 02:00:14;;;;;;;6.50;5.70;;;;;;;7.45;100.00;99207.69;5017987;28;20398;-78
2022/05/03 02:02:52;;;;;;;5.83;5.33;;;;;;;7.40;100.00;99205.63;5017861;28;20268;-79
2022/05/03 02:06:01;;;;;;;6.83;5.63;;;;;;;7.39;100.00;99205.84;5019204;28;20183;-78
2022/05/03 02:08:38;;;;;;;5.70;5.20;;;;;;;7.39;100.00;99200.50;5002030;28;20190;-79
2022/05/03 02:11:45;;;;;;;5.90;5.30;;;;;;;7.38;100.00;99206.84;5018147;28;20244;-78
2022/05/03 02:17:04;;;;;;;5.50;5.07;;;;;;;7.38;100.00;99209.53;5021140;28;20526;-78
2022/05/03 02:19:46;;;;;;;5.83;5.33;;;;;;;7.40;100.00;99205.63;4985573;28;20186;-78
2022/05/03 02:22:26;;;;;;;6.00;5.50;;;;;;;7.40;100.00;99202.97;5035395;28;20210;-78
2022/05/03 02:25:02;;;;;;;5.97;5.37;;;;;;;7.41;100.00;99201.13;5018258;28;20247;-79
2022/05/03 02:27:34;;;;;;;6.10;5.50;;;;;;;7.38;100.00;99198.88;5017743;28;20209;-78
2022/05/03 02:30:03;;;;;;;6.30;5.57;;;;;;;7.37;100.00;99215.91;5001827;28;20205;-78
2022/05/03 02:32:56;;;;;;;8.10;5.70;;;;;;;7.34;100.00;99198.47;5035379;28;20198;-78
2022/05/03 02:35:24;;;;;;;5.73;5.23;;;;;;;7.32;100.00;99203.22;5017941;28;20613;-78
2022/05/03 02:38:05;;;;;;;6.27;5.40;;;;;;;7.35;100.00;99200.13;5001489;28;20193;-79
2022/05/03 02:40:33;;;;;;;5.93;5.43;;;;;;;7.33;100.00;99193.34;5016975;28;20691;-78
2022/05/03 02:43:01;;;;;;;6.03;5.47;;;;;;;7.33;100.00;99204.81;5001545;28;20551;-80
2022/05/03 02:45:29;;;;;;;5.67;5.17;;;;;;;7.29;100.00;99194.78;5034945;28;20189;-78
2022/05/03 02:48:13;;;;;;;5.60;5.20;;;;;;;7.29;100.00;99195.59;5017764;28;20269;-79
2022/05/03 02:50:55;;;;;;;5.90;5.30;;;;;;;7.27;100.00;99191.53;5034825;28;20166;-78
2022/05/03 02:53:52;;;;;;;5.80;5.30;;;;;;;7.28;100.00;99190.50;5018779;28;20363;-78
2022/05/03 02:56:28;;;;;;;6.03;5.37;;;;;;;7.25;100.00;99205.06;4999724;28;20294;-78
2022/05/03 02:59:10;;;;;;;5.80;5.30;;;;;;;7.22;100.00;99200.16;5002159;28;20218;-78
2022/05/03 03:02:05;;;;;;;6.27;5.33;;;;;;;7.19;100.00;99197.88;5035395;28;20309;-78
2022/05/03 03:04:54;;;;;;;5.50;5.10;;;;;;;7.20;100.00;99199.53;5016428;28;20240;-78
2022/05/03 03:07:22;;;;;;;6.07;5.07;;;;;;;7.17;100.00;99199.13;5017334;28;20190;-78
2022/05/03 03:10:03;;;;;;;5.97;5.50;;;;;;;7.19;100.00;99205.06;5017899;28;20209;-78
2022/05/03 03:13:05;;;;;;;5.63;5.20;;;;;;;7.18;100.00;99190.13;5001839;28;20515;-79
2022/05/03 03:15:39;;;;;;;5.90;5.40;;;;;;;7.16;100.00;99194.81;5001275;28;20221;-79
2022/05/03 03:18:14;;;;;;;5.30;4.90;;;;;;;7.17;100.00;99197.28;5017040;28;20190;-78
2022/05/03 03:20:45;;;;;;;5.97;5.20;;;;;;;7.20;100.00;99196.03;5035151;28;20248;-78
2022/05/03 03:23:15;;;;;;;5.57;5.07;;;;;;;7.19;100.00;99195.22;5001057;28;20191;-78
2022/05/03 03:25:43;;;;;;;5.83;5.33;;;;;;;7.25;100.00;99193.56;5017011;28;20611;-78
2022/05/03 03:28:12;;;;;;;5.30;4.90;;;;;;;7.23;100.00;99195.66;5016794;28;20182;-79
2022/05/03 03:30:42;;;;;;;5.50;5.00;;;;;;;7.26;100.00;99190.72;5016714;28;20268;-78
2022/05/03 03:33:09;;;;;;;5.50;4.93;;;;;;;7.25;100.00;99186.41;5032603;28;20208;-78
2022/05/03 03:35:36;;;;;;;5.77;5.17;;;;;;;7.25;100.00;99197.06;5016284;28;20269;-78
2022/05/03 03:38:05;;;;;;;5.63;5.13;;;;;;;7.25;100.00;99199.72;4984678;28;20198;-78
2022/05/03 03:40:32;;;;;;;5.70;5.17;;;;;;;7.33;100.00;99196.00;5016276;28;20382;-79
2022/05/03 03:42:58;;;;;;;4.90;4.50;;;;;;;7.34;100.00;99195.81;5000673;28;20210;-78
2022/05/03 03:45:25;;;;;;;6.57;5.17;;;;;;;7.35;100.00;99200.13;5004238;28;20241;-78
2022/05/03 03:47:52;;;;;;;5.40;4.90;;;;;;;7.41;100.00;99193.13;4997469;28;20241;-79
2022/05/03 03:50:19;;;;;;;12.80;5.40;;;;;;;7.45;100.00;99205.84;4983200;28;20225;-79
2022/05/03 03:52:47;;;;;;;5.33;4.80;;;;;;;7.55;100.00;99210.72;4996657;28;20262;-77
2022/05/03 03:55:15;;;;;;;5.80;5.33;;;;;;;7.65;100.00;99205.75;5005436;28;20199;-77
2022/05/03 03:57:41;;;;;;;5.37;4.87;;;;;;;7.78;100.00;99207.56;4982375;28;20218;-78
2022/05/03 04:00:10;;;;;;;5.57;4.93;;;;;;;7.88;100.00;99207.94;4996649;28;20191;-79
2022/05/03 04:02:41;;;;;;;6.70;4.87;;;;;;;7.91;100.00;99207.50;5007158;28;20265;-79
2022/05/03 04:05:14;;;;;;;5.53;5.03;;;;;;;8.00;100.00;99202.72;5013121;28;20183;-79
2022/05/03 04:07:42;;;;;;;6.37;4.93;;;;;;;8.02;100.00;99203.34;5013243;28;20175;-79
2022/05/03 04:10:09;;;;;;;5.50;4.97;;;;;;;8.09;100.00;99198.78;5013084;28;20222;-78
2022/05/03 04:12:36;;;;;;;4.73;4.37;;;;;;;8.14;100.00;99202.44;5012992;28;20193;-78
2022/05/03 04:15:03;;;;;;;5.40;4.67;;;;;;;8.22;100.00;99201.38;5012763;28;20220;-78
2022/05/03 04:17:30;;;;;;;5.17;4.77;;;;;;;8.31;100.00;99200.09;5001774;28;20610;-78
2022/05/03 04:19:57;;;;;;;4.80;4.40;;;;;;;8.45;100.00;99200.84;5004407;28;20246;-79
2022/05/03 04:22:33;;;;;;;5.33;4.90;;;;;;;8.57;100.00;99201.78;4993637;28;20211;-78
2022/05/03 04:25:01;;;;;;;5.07;4.67;;;;;;;8.74;100.00;99209.03;4993314;28;20319;-79
2022/05/03 04:27:28;;;;;;;5.30;4.53;;;;;;;8.87;100.00;99208.09;4993953;28;20215;-78
2022/05/03 04:29:56;;;;;;;4.30;4.00;;;;;;;9.04;100.00;99211.06;4993594;28;20215;-78
2022/05/03 04:32:23;;;;;;;5.33;4.80;;;;;;;9.21;100.00;99212.13;4993912;28;20183;-78
2022/05/03 04:34:50;;;;;;;5.33;4.83;;;;;;;9.38;100.00;99213.16;4992288;28;20215;-79
2022/05/03 04:37:17;;;;;;;4.67;4.23;;;;;;;9.53;100.00;99216.31;4993412;28;20215;-80
2022/05/03 04:39:44;;;;;;;6.43;4.53;;;;;;;9.69;100.00;99213.03;4993055;28;20172;-79
2022/05/03 04:42:12;;;;;;;5.93;4.70;;;;;;;9.86;100.00;99204.38;4993897;28;20301;-79
2022/05/03 04:44:38;;;;;;;8.03;7.20;;;;;;;10.03;100.00;99211.56;4997131;28;20625;-78
2022/05/03 04:47:07;;;;;;;6.00;5.40;;;;;;;10.16;100.00;99215.97;4995442;28;20207;-78
2022/05/03 04:49:35;;;;;;;4.60;4.20;;;;;;;10.27;100.00;99212.50;4994553;28;20211;-79
2022/05/03 04:52:06;;;;;;;8.10;5.23;;;;;;;10.44;100.00;99223.41;4994858;28;20175;-80
2022/05/03 04:54:37;;;;;;;5.43;4.63;;;;;;;10.63;100.00;99229.53;4996711;28;20180;-78
2022/05/03 04:57:06;;;;;;;5.23;4.70;;;;;;;10.82;100.00;99231.91;4995267;28;20186;-80
2022/05/03 04:59:33;;;;;;;5.23;4.73;;;;;;;10.98;100.00;99238.44;4997094;28;20597;-78
2022/05/03 05:02:02;;;;;;;6.30;4.60;;;;;;;11.15;100.00;99231.31;4987163;28;20230;-79
2022/05/03 05:04:30;;;;;;;6.00;4.43;;;;;;;11.34;100.00;99242.75;4996416;28;20596;-78
2022/05/03 05:06:57;;;;;;;4.97;4.57;;;;;;;11.51;100.00;99246.38;4993791;28;20433;-79
2022/05/03 05:09:27;;;;;;;4.70;4.30;;;;;;;11.70;100.00;99244.38;5012804;28;20194;-78
2022/05/03 05:12:14;;;;;;;6.47;4.43;;;;;;;11.84;100.00;99235.03;5012055;28;20218;-80
2022/05/03 05:14:41;;;;;;;5.40;4.10;;;;;;;11.99;100.00;99231.84;4996406;28;20230;-79
2022/05/03 05:17:08;;;;;;;4.43;4.00;;;;;;;12.17;100.00;99242.41;4978462;28;20214;-79
2022/05/03 05:19:37;;;;;;;4.60;4.20;;;;;;;12.34;100.00;99224.47;5003229;28;20599;-78
2022/05/03 05:22:06;;;;;;;6.13;4.43;;;;;;;12.47;100.00;99216.09;5003698;28;20405;-79
2022/05/03 05:24:34;;;;;;;5.10;4.60;;;;;;;12.53;100.00;99220.50;5000836;28;20195;-78
2022/05/03 05:27:00;;;;;;;5.77;4.67;;;;;;;12.67;100.00;99223.72;5003440;28;20199;-78
2022/05/03 05:29:27;;;;;;;10.03;4.80;;;;;;;12.80;100.00;99228.75;5006361;28;20573;-79
2022/05/03 05:31:54;;;;;;;6.03;4.40;;;;;;;12.99;100.00;99229.34;5009083;28;20591;-81
2022/05/03 05:34:21;;;;;;;4.80;4.17;;;;;;;13.18;100.00;99218.13;5000117;28;20224;-79
2022/05/03 05:36:48;;;;;;;5.57;4.70;;;;;;;13.36;100.00;99227.78;5004724;28;20187;-79
2022/05/03 05:39:15;;;;;;;5.90;4.33;;;;;;;13.56;100.00;99219.19;5000362;28;20195;-79
2022/05/03 05:41:42;;;;;;;5.23;4.13;;;;;;;13.45;100.00;99212.84;5015117;28;20235;-79
2022/05/03 05:44:10;;;;;;;5.00;4.53;;;;;;;13.67;100.00;99215.56;4989217;28;20591;-80
2022/05/03 05:46:37;;;;;;;5.23;4.73;;;;;;;13.85;100.00;99222.53;4997390;28;20225;-80
2022/05/03 05:49:07;;;;;;;4.97;4.13;;;;;;;14.05;100.00;99226.28;5005608;28;20200;-79
2022/05/03 05:51:33;;;;;;;4.73;4.33;;;;;;;14.18;100.00;99219.72;5026306;23;20293;-75
2022/05/03 05:54:00;;;;;;;4.50;4.10;;;;;;;14.30;100.00;99217.66;5010719;28;20192;-75
2022/05/03 05:56:28;;;;;;;6.27;4.20;;;;;;;14.45;100.00;99222.44;5004807;28;20708;-76
2022/05/03 05:58:55;;;;;;;4.43;4.07;;;;;;;14.53;100.00;99214.69;5009535;28;20275;-75
2022/05/03 06:01:26;;;;;;;4.43;4.00;;;;;;;14.76;100.00;99218.13;5009089;28;20291;-75
2022/05/03 06:03:53;;;;;;;4.77;4.03;;;;;;;14.91;100.00;99219.09;5009151;28;20920;-76
2022/05/03 06:06:19;;;;;;;5.10;3.80;;;;;;;14.86;100.00;99213.66;5011519;28;20237;-76
2022/05/03 06:08:46;;;;;;;5.50;4.03;;;;;;;15.13;100.00;99216.28;5010440;28;20549;-76
2022/05/03 06:11:13;;;;;;;6.90;3.90;;;;;;;15.25;100.00;99216.09;5011568;28;20218;-76
2022/05/03 06:13:40;;;;;;;5.30;4.00;;;;;;;15.29;100.00;99222.59;5011071;28;20676;-76
2022/05/03 06:16:09;;;;;;;5.37;4.50;;;;;;;15.31;100.00;99215.84;5010506;28;20233;-76
2022/05/03 06:18:36;;;;;;;4.73;3.90;;;;;;;15.56;100.00;99217.13;5007803;28;20195;-76
2022/05/03 06:21:05;;;;;;;3.90;3.60;;;;;;;15.86;100.00;99220.78;5010203;28;20190;-75
2022/05/03 06:23:32;;;;;;;4.03;3.60;;;;;;;16.02;100.00;99216.25;5011084;28;20234;-76
2022/05/03 06:25:58;;;;;;;5.33;4.50;;;;;;;16.15;100.00;99220.34;5008439;28;20187;-75
2022/05/03 06:28:25;;;;;;;4.23;3.90;;;;;;;16.30;100.00;99218.50;5009205;28;20591;-75
2022/05/03 06:30:52;;;;;;;4.50;4.20;;;;;;;16.55;100.00;99225.06;5009919;28;20187;-75
2022/05/03 06:33:19;;;;;;;4.60;4.20;;;;;;;16.68;100.00;99225.38;5011122;28;20286;-75
2022/05/03 06:35:46;;;;;;;5.00;4.00;;;;;;;16.92;100.00;99216.72;5011335;28;20227;-75
2022/05/03 06:38:12;;;;;;;6.10;3.90;;;;;;;17.07;100.00;99225.66;5010477;28;20191;-75
2022/05/03 06:40:39;;;;;;;4.43;4.03;;;;;;;17.15;100.00;99225.09;5010446;28;20655;-75
2022/05/03 06:43:06;;;;;;;5.73;4.03;;;;;;;17.20;100.00;99227.00;5010878;28;20203;-75
2022/05/03 06:45:33;;;;;;;3.83;3.53;;;;;;;17.27;100.00;99227.53;5010343;28;20262;-75
2022/05/03 06:48:00;;;;;;;7.03;5.63;;;;;;;17.36;100.00;99227.78;5009543;28;20607;-75
2022/05/03 06:50:29;;;;;;;4.30;3.90;;;;;;;17.54;100.00;99221.81;5010118;28;20222;-75
2022/05/03 06:52:56;;;;;;;5.80;4.03;;;;;;;17.65;100.00;99222.59;5009890;28;20245;-75
2022/05/03 06:55:23;;;;;;;4.03;3.73;;;;;;;17.81;100.00;99218.78;5007317;28;20242;-75
2022/05/03 06:57:50;;;;;;;3.83;3.53;;;;;;;18.01;100.00;99226.81;5010674;28;20188;-75
2022/05/03 07:00:17;;;;;;;5.00;3.70;;;;;;;18.12;100.00;99219.44;5010387;28;20299;-75
2022/05/03 07:02:43;;;;;;;6.60;3.97;;;;;;;18.28;100.00;99218.28;5009997;28;20239;-75
2022/05/03 07:05:10;;;;;;;4.17;3.80;;;;;;;18.42;100.00;99214.69;5010254;28;20233;-75
2022/05/03 07:07:38;;;;;;;4.20;3.80;;;;;;;18.50;100.00;99215.97;5010773;28;20789;-75
2022/05/03 07:10:05;;;;;;;3.90;3.60;;;;;;;18.70;100.00;99213.16;5010727;28;20215;-74
2022/05/03 07:12:32;;;;;;;4.23;3.73;;;;;;;18.88;100.00;99217.09;5010290;28;20257;-75
2022/05/03 07:15:04;;;;;;;4.10;3.80;;;;;;;18.72;100.00;99213.69;5010005;28;20259;-75
2022/05/03 07:23:03;;;;;;;3.53;3.23;;;;;;;19.24;100.00;99214.88;5009965;28;20195;-74
2022/05/03 07:25:31;;;;;;;4.70;3.40;;;;;;;19.26;100.00;99209.97;5010316;28;20207;-75
2022/05/03 07:27:58;;;;;;;3.97;3.40;;;;;;;19.42;97.19;99211.44;5010403;28;20189;-74
2022/05/03 07:30:25;;;;;;;3.90;3.60;;;;;;;19.54;95.91;99211.91;5010157;28;20791;-75
2022/05/03 07:32:52;;;;;;;3.30;3.00;;;;;;;19.73;93.66;99217.41;5010181;28;20254;-75
2022/05/03 07:35:18;;;;;;;3.50;3.20;;;;;;;19.89;87.74;99223.44;5010034;28;20196;-75
2022/05/03 07:37:45;;;;;;;4.33;3.20;;;;;;;19.88;84.23;99213.66;5010324;28;20207;-75
2022/05/03 07:40:12;;;;;;;3.60;3.13;;;;;;;19.97;82.07;99218.19;5009688;28;20239;-74
2022/05/03 07:42:39;;;;;;;3.87;3.13;;;;;;;20.06;81.58;99216.44;5009198;28;20230;-75
2022/05/03 07:45:06;;;;;;;4.27;3.07;;;;;;;20.16;82.82;99219.03;5009476;28;20187;-75
2022/05/03 07:47:33;;;;;;;3.40;3.10;;;;;;;20.25;81.66;99213.72;5007816;28;20194;-74
2022/05/03 07:50:00;;;;;;;3.53;3.20;;;;;;;20.38;79.29;99212.25;5009156;28;20221;-75
2022/05/03 07:52:30;;;;;;;4.03;3.20;;;;;;;20.32;77.26;99207.97;5005978;28;20228;-75
2022/05/03 07:54:57;;;;;;;3.50;2.93;;;;;;;20.38;74.19;99201.38;5004161;28;20184;-75
2022/05/03 07:57:24;;;;;;;3.57;3.27;;;;;;;20.45;72.09;99209.97;5003777;28;20316;-75
2022/05/03 07:59:54;;;;;;;3.40;3.03;;;;;;;20.66;70.92;99205.84;5009231;28;20271;-75
2022/05/03 08:02:24;;;;;;;3.63;3.30;;;;;;;20.75;67.90;99212.25;5008908;28;20211;-75
2022/05/03 08:04:53;;;;;;;3.27;3.07;;;;;;;20.88;66.98;99208.75;5009858;28;20194;-75
2022/05/03 08:07:20;;;;;;;3.40;3.10;;;;;;;21.04;62.90;99212.06;5009489;28;20205;-74
2022/05/03 08:09:48;;;;;;;4.03;3.20;;;;;;;21.08;62.18;99208.44;5007643;28;20281;-75
2022/05/03 08:12:16;;;;;;;4.47;3.20;;;;;;;21.13;61.10;99207.56;5006345;28;20564;-75
2022/05/03 08:14:43;;;;;;;3.63;3.30;;;;;;;21.20;61.10;99218.88;5005849;28;20263;-75
2022/05/03 08:17:10;;;;;;;4.67;3.20;;;;;;;21.31;60.83;99203.97;5007872;28;20207;-75
2022/05/03 08:19:37;;;;;;;3.40;3.07;;;;;;;21.44;61.36;99202.38;5009417;28;20213;-75
2022/05/03 08:22:04;;;;;;;4.50;3.20;;;;;;;21.51;63.03;99206.31;5008994;28;20216;-75
2022/05/03 08:24:31;;;;;;;4.60;3.30;;;;;;;21.65;60.98;99206.31;5008964;28;20268;-75
2022/05/03 08:26:59;;;;;;;3.33;3.03;;;;;;;21.70;59.10;99219.03;5008890;28;20205;-75
2022/05/03 08:29:27;;;;;;;3.20;3.00;;;;;;;21.73;57.41;99213.00;5009476;28;20184;-76
2022/05/03 08:31:54;;;;;;;3.70;3.40;;;;;;;21.85;55.92;99216.81;5008814;28;20668;-75
2022/05/03 08:34:21;;;;;;;4.40;3.10;;;;;;;21.95;51.43;99213.94;5009315;28;20199;-75
2022/05/03 08:42:01;;;;;;;3.50;2.90;;;;;;;21.94;51.62;99216.94;5008919;28;20314;-75
2022/05/03 08:42:20;;;;;;;5.47;2.97;;;;;;;22.16;48.76;99208.84;5009078;28;20267;-75
2022/05/03 08:44:47;;;;;;;3.23;2.53;;;;;;;22.14;47.56;99216.53;5008844;28;20207;-75
2022/05/03 08:47:16;;;;;;;4.93;2.60;;;;;;;22.13;44.50;99206.75;5009217;28;20208;-75
2022/05/03 08:49:55;;;;;;;4.13;2.57;;;;;;;22.21;43.95;99206.00;4991484;28;20656;-75
2022/05/03 08:52:23;;;;;;;3.00;2.60;;;;;;;22.19;44.21;99212.91;5008746;28;20316;-75
2022/05/03 08:54:50;;;;;;;2.70;2.50;;;;;;;22.15;44.94;99207.25;5008901;28;20242;-76
2022/05/03 08:57:18;;;;;;;4.33;2.37;;;;;;;22.09;45.39;99211.19;4991652;28;20605;-75
2022/05/03 08:59:45;;;;;;;4.17;2.40;;;;;;;22.22;44.62;99210.34;5008882;28;20179;-75
2022/05/03 09:02:12;;;;;;;2.77;2.40;;;;;;;22.35;45.10;99208.72;5007996;28;20211;-75
2022/05/03 09:04:40;;;;;;;3.38;2.17;;;;;;;22.34;44.42;99201.66;5012407;28;20194;-75
2022/05/03 09:07:21;;;;;;;4.28;2.40;;;;;;;22.35;42.60;99212.25;5013490;28;20567;-75
2022/05/03 09:09:50;;;;;;;4.57;2.28;;;;;;;22.45;42.15;99207.66;4995179;28;20244;-75
2022/05/03 09:12:31;;;;;;;2.93;2.63;;;;;;;22.61;41.53;99206.22;5012693;28;20203;-75
2022/05/03 09:15:00;;;;;;;2.40;2.23;;;;;;;22.75;41.70;99201.56;5012709;28;20257;-76
2022/05/03 09:17:38;;;;;;;2.42;2.15;;;;;;;22.82;40.67;99201.91;5012740;28;20194;-76
2022/05/03 09:25:50;;;;;;;2.42;2.22;;;;;;;23.01;40.03;99191.59;5012606;28;20182;-75
2022/05/03 09:28:20;;;;;;;2.72;2.40;;;;;;;23.02;40.12;99189.69;5012753;28;20218;-75
2022/05/03 09:30:50;;;;;;;2.80;2.50;;;;;;;23.08;39.87;99193.91;5012292;28;20214;-76
2022/05/03 09:33:21;;;;;;;3.15;2.72;;;;;;;23.18;39.71;99197.19;5012846;28;20190;-76
2022/05/03 09:35:49;;;;;;;3.65;2.70;;;;;;;23.23;39.30;99186.13;4994655;28;20229;-75
2022/05/03 09:38:16;;;;;;;2.63;2.40;;;;;;;23.33;38.83;99187.75;5012089;28;20218;-75
2022/05/03 09:40:45;;;;;;;2.45;2.30;;;;;;;23.36;39.21;99189.09;5012077;28;20187;-75
2022/05/03 09:43:13;;;;;;;3.92;2.47;;;;;;;23.49;37.94;99180.81;5012393;28;20203;-76
2022/05/03 09:45:40;;;;;;;2.50;2.30;;;;;;;23.54;36.58;99174.41;5012021;28;20179;-75
2022/05/03 09:48:07;;;;;;;2.78;2.20;;;;;;;23.62;35.78;99168.97;5012188;28;20187;-75
2022/05/03 09:50:41;;;;;;;3.15;2.00;;;;;;;23.61;36.18;99174.72;5011348;28;20315;-75
2022/05/03 09:53:14;;;;;;;2.28;2.08;;;;;;;23.69;36.79;99179.44;5012313;28;20193;-75
2022/05/03 09:55:42;;;;;;;2.30;2.10;;;;;;;23.73;36.96;99169.47;5011573;28;20207;-75
2022/05/03 09:58:10;;;;;;;2.70;2.05;;;;;;;23.71;36.83;99168.97;5011533;28;20195;-76
2022/05/03 10:00:42;;;;;;;3.97;2.50;;;;;;;23.72;36.41;99167.06;5010845;28;20191;-75
2022/05/03 10:03:10;;;;;;;3.05;2.20;;;;;;;23.77;36.55;99167.72;5009219;28;20209;-76
2022/05/03 10:05:39;;;;;;;4.38;2.30;;;;;;;23.83;38.36;99168.38;5012074;28;20187;-76
2022/05/03 10:08:08;;;;;;;3.50;2.50;;;;;;;23.88;37.57;99162.78;5011905;28;20175;-75
2022/05/03 10:10:34;;;;;;;3.55;2.50;;;;;;;23.90;37.89;99157.78;5011387;28;20238;-75
2022/05/03 10:13:01;;;;;;;2.85;2.65;;;;;;;23.80;37.86;99156.13;5011351;28;20659;-75
2022/05/03 10:21:29;;;;;;;4.60;2.60;;;;;;;23.96;36.48;99151.03;4996902;28;20209;-76
2022/05/03 10:24:12;;;;;;;2.88;2.58;;;;;;;23.98;36.89;99148.81;4993290;28;20238;-75
2022/05/03 10:26:56;;;;;;;2.83;2.50;;;;;;;24.03;38.00;99151.34;4974402;28;20176;-75
2022/05/03 10:29:23;;;;;;;3.17;2.55;;;;;;;24.19;36.15;99136.13;4991612;28;20203;-75
2022/05/03 10:31:54;;;;;;;2.30;2.10;;;;;;;24.36;35.34;99133.38;5003952;28;20643;-76
2022/05/03 10:34:39;;;;;;;4.35;2.38;;;;;;;24.63;35.72;99137.75;5008430;28;20183;-76
2022/05/03 10:37:07;;;;;;;3.78;2.53;;;;;;;24.77;37.13;99132.91;5008927;28;20261;-75
2022/05/03 10:39:35;;;;;;;2.72;2.53;;;;;;;24.89;36.47;99126.78;5010929;28;20297;-75
2022/05/03 10:42:11;;;;;;;3.65;3.30;;;;;;;24.96;37.04;99130.59;4993980;28;20230;-76
2022/05/03 10:44:45;;;;;;;4.30;3.10;;;;;;;25.03;36.08;99127.38;5011233;28;20172;-76
2022/05/03 10:47:14;;;;;;;3.20;2.90;;;;;;;25.07;36.47;99122.03;5011161;28;20187;-76
2022/05/03 10:50:10;;;;;;;2.97;2.78;;;;;;;25.12;34.78;99116.38;4993354;28;20202;-75
2022/05/03 10:52:37;;;;;;;4.38;2.80;;;;;;;25.11;35.71;99114.78;4997549;28;20211;-76
2022/05/03 10:55:11;;;;;;;3.63;2.63;;;;;;;25.22;33.10;99124.25;4992076;28;20206;-76
2022/05/03 10:58:15;;;;;;;3.17;2.45;;;;;;;25.32;31.84;99113.75;4991266;28;20288;-76
2022/05/03 11:01:22;;;;;;;3.03;2.50;;;;;;;25.51;31.92;99109.78;4996518;28;20186;-76
2022/05/03 11:03:54;;;;;;;2.45;2.25;;;;;;;25.64;32.59;99108.78;5010355;28;20199;-76
2022/05/03 11:06:25;;;;;;;159.40;17.45;;;;;;;25.79;36.31;99105.47;5010403;28;20691;-76
2022/05/03 11:11:41;;;;;;;2.70;2.40;;;;;;;25.66;32.38;99101.03;5010813;28;20250;-76
2022/05/03 11:14:11;;;;;;;2.40;2.20;;;;;;;25.62;31.95;99095.38;5010391;28;20568;-76
2022/05/03 11:16:38;;;;;;;2.55;2.30;;;;;;;25.64;30.48;99093.13;5010658;28;20602;-76
2022/05/03 11:19:17;;;;;;;3.78;2.40;;;;;;;25.54;30.26;99084.44;5010487;28;20723;-76
2022/05/03 11:21:45;;;;;;;2.65;2.30;;;;;;;25.25;31.18;99096.97;5010252;28;20231;-76
2022/05/03 11:24:23;;;;;;;3.55;2.50;;;;;;;25.12;32.51;99087.03;5010454;28;20205;-76
2022/05/03 11:26:52;;;;;;;3.25;2.40;;;;;;;25.12;31.14;99092.53;5008861;28;20182;-76
2022/05/03 11:29:19;;;;;;;2.28;2.08;;;;;;;25.35;31.54;99085.66;5010450;28;20753;-76
2022/05/03 11:31:47;;;;;;;2.40;2.20;;;;;;;25.78;30.78;99085.44;5010252;28;20278;-76
2022/05/03 11:34:14;;;;;;;2.90;2.00;;;;;;;26.04;30.01;99077.03;5010192;28;20230;-76
2022/05/03 11:36:46;;;;;;;2.00;1.90;;;;;;;26.20;29.76;99079.97;5010093;28;20266;-76
2022/05/03 11:39:14;;;;;;;2.15;2.05;;;;;;;26.41;29.94;99086.28;5010296;28;20221;-76
2022/05/03 11:41:43;;;;;;;3.30;2.30;;;;;;;26.70;29.83;99091.66;5010093;28;20222;-76
2022/05/03 11:44:10;;;;;;;2.10;2.00;;;;;;;27.22;27.19;99080.09;5009736;28;20252;-76
2022/05/03 11:46:38;;;;;;;2.38;2.00;;;;;;;27.42;26.47;99073.69;5009781;28;20237;-77
2022/05/03 11:49:06;;;;;;;3.55;2.22;;;;;;;27.76;26.09;99088.16;5010028;28;20245;-76
2022/05/03 11:57:25;;;;;;;2.40;2.20;;;;;;;28.51;26.95;99088.44;5009954;28;20726;-76
2022/05/03 11:59:55;;;;;;;3.65;2.40;;;;;;;28.62;27.63;99090.31;4992571;28;20175;-76
2022/05/03 12:02:29;;;;;;;1.98;1.83;;;;;;;28.63;27.07;99093.88;4991750;28;20791;-76
2022/05/03 12:05:06;;;;;;;2.40;2.20;;;;;;;28.86;25.65;99093.00;5009538;28;20253;-76
2022/05/03 12:07:42;;;;;;;3.40;2.08;;;;;;;28.98;26.44;99091.28;5009586;28;20199;-76
2022/05/03 12:10:33;;;;;;;2.33;2.08;;;;;;;28.73;25.99;99090.66;5009805;28;20245;-76
2022/05/03 12:13:14;;;;;;;4.38;1.92;;;;;;;28.48;26.36;99095.44;5009606;28;20233;-76
2022/05/03 12:15:48;;;;;;;3.80;2.20;;;;;;;28.39;27.08;99097.53;5009779;28;20183;-77
2022/05/03 12:18:16;;;;;;;2.00;1.90;;;;;;;28.08;27.42;99100.94;5009384;28;20179;-76
2022/05/03 12:21:03;;;;;;;2.10;1.75;;;;;;;27.89;27.90;99100.75;5009208;28;20598;-76
2022/05/03 12:23:33;;;;;;;1.95;1.77;;;;;;;27.36;27.99;99101.75;4999096;28;20246;-76
2022/05/03 12:26:17;;;;;;;2.67;2.00;;;;;;;27.32;29.03;99107.16;5009295;28;20237;-76
2022/05/03 12:28:52;;;;;;;3.90;1.75;;;;;;;27.33;29.04;99114.28;5009275;28;20193;-76
2022/05/03 12:31:20;;;;;;;2.95;1.70;;;;;;;27.40;29.07;99119.19;5009316;28;20263;-76